sensor_id;sensor_type;location;lat;lon;timestamp;P1;durP1;ratioP1;P2;durP2;ratioP2
75012;SDS011;63567;49.956;20.130;2023-04-05T00:01:07;8.77;;;4.38;;
75012;SDS011;63567;49.956;20.130;2023-04-05T00:03:32;11.88;;;5.13;;
75012;SDS011;63567;49.956;20.130;2023-04-05T00:05:59;11.45;;;5.20;;
75012;SDS011;63567;49.956;20.130;2023-04-05T00:08:26;10.02;;;4.80;;
75012;SDS011;63567;49.956;20.130;2023-04-05T00:10:52;9.13;;;4.93;;
75012;SDS011;63567;49.956;20.130;2023-04-05T00:13:18;10.25;;;4.78;;
75012;SDS011;63567;49.956;20.130;2023-04-05T00:15:46;9.68;;;4.03;;
75012;SDS011;63567;49.956;20.130;2023-04-05T00:18:13;8.27;;;4.32;;
75012;SDS011;63567;49.956;20.130;2023-04-05T00:20:58;8.88;;;4.88;;
75012;SDS011;63567;49.956;20.130;2023-04-05T00:23:23;7.47;;;4.43;;
75012;SDS011;63567;49.956;20.130;2023-04-05T00:25:50;9.18;;;4.40;;
75012;SDS011;63567;49.956;20.130;2023-04-05T00:28:16;8.82;;;4.68;;
75012;SDS011;63567;49.956;20.130;2023-04-05T00:30:41;8.33;;;4.30;;
75012;SDS011;63567;49.956;20.130;2023-04-05T00:33:06;9.95;;;4.65;;
75012;SDS011;63567;49.956;20.130;2023-04-05T00:35:32;10.20;;;4.70;;
75012;SDS011;63567;49.956;20.130;2023-04-05T00:37:57;9.65;;;4.75;;
75012;SDS011;63567;49.956;20.130;2023-04-05T00:40:23;8.18;;;4.75;;
75012;SDS011;63567;49.956;20.130;2023-04-05T00:42:48;8.75;;;4.25;;
75012;SDS011;63567;49.956;20.130;2023-04-05T00:45:14;8.55;;;4.43;;
75012;SDS011;63567;49.956;20.130;2023-04-05T00:47:40;9.63;;;4.70;;
75012;SDS011;63567;49.956;20.130;2023-04-05T00:50:06;9.18;;;4.95;;
75012;SDS011;63567;49.956;20.130;2023-04-05T00:52:33;10.57;;;4.68;;
75012;SDS011;63567;49.956;20.130;2023-04-05T00:55:01;10.20;;;4.72;;
75012;SDS011;63567;49.956;20.130;2023-04-05T00:57:29;8.93;;;4.55;;
75012;SDS011;63567;49.956;20.130;2023-04-05T00:59:57;8.45;;;4.22;;
75012;SDS011;63567;49.956;20.130;2023-04-05T01:02:33;10.10;;;4.53;;
75012;SDS011;63567;49.956;20.130;2023-04-05T01:05:05;10.20;;;4.75;;
75012;SDS011;63567;49.956;20.130;2023-04-05T01:07:53;10.48;;;4.70;;
75012;SDS011;63567;49.956;20.130;2023-04-05T01:10:41;12.55;;;5.40;;
75012;SDS011;63567;49.956;20.130;2023-04-05T01:13:10;12.98;;;5.70;;
75012;SDS011;63567;49.956;20.130;2023-04-05T01:15:36;9.15;;;4.43;;
75012;SDS011;63567;49.956;20.130;2023-04-05T01:18:01;9.43;;;4.73;;
75012;SDS011;63567;49.956;20.130;2023-04-05T01:20:27;10.90;;;4.68;;
75012;SDS011;63567;49.956;20.130;2023-04-05T01:23:07;9.38;;;4.43;;
75012;SDS011;63567;49.956;20.130;2023-04-05T01:31:18;7.88;;;4.32;;
75012;SDS011;63567;49.956;20.130;2023-04-05T01:39:14;9.40;;;4.40;;
75012;SDS011;63567;49.956;20.130;2023-04-05T01:41:41;8.40;;;4.13;;
75012;SDS011;63567;49.956;20.130;2023-04-05T01:44:07;9.75;;;4.60;;
75012;SDS011;63567;49.956;20.130;2023-04-05T01:46:32;8.75;;;4.20;;
75012;SDS011;63567;49.956;20.130;2023-04-05T01:48:58;7.40;;;4.03;;
75012;SDS011;63567;49.956;20.130;2023-04-05T01:51:23;7.63;;;3.67;;
75012;SDS011;63567;49.956;20.130;2023-04-05T01:53:49;10.10;;;4.38;;
75012;SDS011;63567;49.956;20.130;2023-04-05T01:56:15;8.65;;;4.28;;
75012;SDS011;63567;49.956;20.130;2023-04-05T01:58:40;9.45;;;4.70;;
75012;SDS011;63567;49.956;20.130;2023-04-05T02:01:05;7.40;;;3.67;;
75012;SDS011;63567;49.956;20.130;2023-04-05T02:03:31;8.98;;;4.75;;
75012;SDS011;63567;49.956;20.130;2023-04-05T02:05:56;8.50;;;4.27;;
75012;SDS011;63567;49.956;20.130;2023-04-05T02:08:22;9.10;;;4.03;;
75012;SDS011;63567;49.956;20.130;2023-04-05T02:10:47;10.27;;;4.30;;
75012;SDS011;63567;49.956;20.130;2023-04-05T02:13:13;9.52;;;4.57;;
75012;SDS011;63567;49.956;20.130;2023-04-05T02:15:38;8.70;;;4.03;;
75012;SDS011;63567;49.956;20.130;2023-04-05T02:18:04;12.35;;;4.90;;
75012;SDS011;63567;49.956;20.130;2023-04-05T02:20:29;14.40;;;4.85;;
75012;SDS011;63567;49.956;20.130;2023-04-05T02:22:55;7.40;;;4.45;;
75012;SDS011;63567;49.956;20.130;2023-04-05T02:25:20;8.90;;;4.53;;
75012;SDS011;63567;49.956;20.130;2023-04-05T02:27:46;6.55;;;3.92;;
75012;SDS011;63567;49.956;20.130;2023-04-05T02:30:13;11.02;;;4.25;;
75012;SDS011;63567;49.956;20.130;2023-04-05T02:32:39;9.65;;;3.95;;
75012;SDS011;63567;49.956;20.130;2023-04-05T02:35:09;8.50;;;4.30;;
75012;SDS011;63567;49.956;20.130;2023-04-05T02:37:36;8.52;;;3.88;;
75012;SDS011;63567;49.956;20.130;2023-04-05T02:40:04;9.07;;;4.22;;
75012;SDS011;63567;49.956;20.130;2023-04-05T02:42:31;9.25;;;3.80;;
75012;SDS011;63567;49.956;20.130;2023-04-05T02:44:57;9.30;;;4.10;;
75012;SDS011;63567;49.956;20.130;2023-04-05T02:47:22;7.03;;;4.20;;
75012;SDS011;63567;49.956;20.130;2023-04-05T02:49:47;8.07;;;4.20;;
75012;SDS011;63567;49.956;20.130;2023-04-05T02:52:13;8.87;;;4.50;;
75012;SDS011;63567;49.956;20.130;2023-04-05T02:54:39;8.07;;;3.67;;
75012;SDS011;63567;49.956;20.130;2023-04-05T02:57:04;6.93;;;3.70;;
75012;SDS011;63567;49.956;20.130;2023-04-05T02:59:30;9.45;;;4.22;;
75012;SDS011;63567;49.956;20.130;2023-04-05T03:01:55;9.38;;;3.72;;
75012;SDS011;63567;49.956;20.130;2023-04-05T03:04:21;7.22;;;3.75;;
75012;SDS011;63567;49.956;20.130;2023-04-05T03:06:46;10.15;;;4.80;;
75012;SDS011;63567;49.956;20.130;2023-04-05T03:09:14;9.30;;;4.45;;
75012;SDS011;63567;49.956;20.130;2023-04-05T03:11:42;9.67;;;3.90;;
75012;SDS011;63567;49.956;20.130;2023-04-05T03:14:07;7.85;;;4.28;;
75012;SDS011;63567;49.956;20.130;2023-04-05T03:16:33;6.60;;;3.67;;
75012;SDS011;63567;49.956;20.130;2023-04-05T03:18:58;6.53;;;3.20;;
75012;SDS011;63567;49.956;20.130;2023-04-05T03:21:24;8.25;;;3.72;;
75012;SDS011;63567;49.956;20.130;2023-04-05T03:23:50;8.45;;;4.07;;
75012;SDS011;63567;49.956;20.130;2023-04-05T03:26:15;8.40;;;4.03;;
75012;SDS011;63567;49.956;20.130;2023-04-05T03:28:44;8.70;;;3.70;;
75012;SDS011;63567;49.956;20.130;2023-04-05T03:31:12;8.05;;;3.55;;
75012;SDS011;63567;49.956;20.130;2023-04-05T03:33:37;8.00;;;4.07;;
75012;SDS011;63567;49.956;20.130;2023-04-05T03:36:03;10.32;;;4.10;;
75012;SDS011;63567;49.956;20.130;2023-04-05T03:38:29;7.85;;;4.05;;
75012;SDS011;63567;49.956;20.130;2023-04-05T03:40:57;9.07;;;4.40;;
75012;SDS011;63567;49.956;20.130;2023-04-05T03:43:23;10.07;;;4.32;;
75012;SDS011;63567;49.956;20.130;2023-04-05T03:45:48;9.63;;;4.00;;
75012;SDS011;63567;49.956;20.130;2023-04-05T03:48:14;7.40;;;3.63;;
75012;SDS011;63567;49.956;20.130;2023-04-05T03:50:44;8.40;;;4.05;;
75012;SDS011;63567;49.956;20.130;2023-04-05T03:53:09;10.05;;;4.10;;
75012;SDS011;63567;49.956;20.130;2023-04-05T03:55:35;8.48;;;4.03;;
75012;SDS011;63567;49.956;20.130;2023-04-05T03:58:00;7.18;;;3.45;;
75012;SDS011;63567;49.956;20.130;2023-04-05T04:00:26;7.80;;;3.40;;
75012;SDS011;63567;49.956;20.130;2023-04-05T04:02:52;7.22;;;3.13;;
75012;SDS011;63567;49.956;20.130;2023-04-05T04:05:18;7.35;;;3.42;;
75012;SDS011;63567;49.956;20.130;2023-04-05T04:07:43;7.47;;;3.67;;
75012;SDS011;63567;49.956;20.130;2023-04-05T04:10:10;6.70;;;4.28;;
75012;SDS011;63567;49.956;20.130;2023-04-05T04:12:37;9.50;;;4.13;;
75012;SDS011;63567;49.956;20.130;2023-04-05T04:15:02;11.43;;;5.80;;
75012;SDS011;63567;49.956;20.130;2023-04-05T04:17:29;13.13;;;6.10;;
75012;SDS011;63567;49.956;20.130;2023-04-05T04:19:56;12.25;;;5.78;;
75012;SDS011;63567;49.956;20.130;2023-04-05T04:22:23;13.05;;;5.95;;
75012;SDS011;63567;49.956;20.130;2023-04-05T04:24:53;12.48;;;6.28;;
75012;SDS011;63567;49.956;20.130;2023-04-05T04:27:19;18.25;;;7.10;;
75012;SDS011;63567;49.956;20.130;2023-04-05T04:29:45;15.57;;;6.93;;
75012;SDS011;63567;49.956;20.130;2023-04-05T04:32:14;11.27;;;6.35;;
75012;SDS011;63567;49.956;20.130;2023-04-05T04:34:41;13.38;;;6.60;;
75012;SDS011;63567;49.956;20.130;2023-04-05T04:37:13;10.85;;;5.45;;
75012;SDS011;63567;49.956;20.130;2023-04-05T04:39:45;9.75;;;5.30;;
75012;SDS011;63567;49.956;20.130;2023-04-05T04:42:11;11.40;;;5.03;;
75012;SDS011;63567;49.956;20.130;2023-04-05T04:44:37;11.63;;;6.28;;
75012;SDS011;63567;49.956;20.130;2023-04-05T04:47:03;11.75;;;6.60;;
75012;SDS011;63567;49.956;20.130;2023-04-05T04:49:37;15.27;;;6.82;;
75012;SDS011;63567;49.956;20.130;2023-04-05T04:52:02;14.48;;;7.05;;
75012;SDS011;63567;49.956;20.130;2023-04-05T04:54:28;16.63;;;7.67;;
75012;SDS011;63567;49.956;20.130;2023-04-05T04:56:53;16.60;;;7.50;;
75012;SDS011;63567;49.956;20.130;2023-04-05T04:59:18;15.60;;;7.07;;
75012;SDS011;63567;49.956;20.130;2023-04-05T05:01:44;14.30;;;6.65;;
75012;SDS011;63567;49.956;20.130;2023-04-05T05:04:09;13.07;;;6.15;;
75012;SDS011;63567;49.956;20.130;2023-04-05T05:06:35;13.02;;;6.03;;
75012;SDS011;63567;49.956;20.130;2023-04-05T05:09:00;19.07;;;8.57;;
75012;SDS011;63567;49.956;20.130;2023-04-05T05:11:26;21.90;;;10.23;;
75012;SDS011;63567;49.956;20.130;2023-04-05T05:13:52;27.55;;;11.95;;
75012;SDS011;63567;49.956;20.130;2023-04-05T05:16:18;22.58;;;9.68;;
75012;SDS011;63567;49.956;20.130;2023-04-05T05:18:45;19.88;;;10.40;;
75012;SDS011;63567;49.956;20.130;2023-04-05T05:21:12;20.17;;;9.38;;
75012;SDS011;63567;49.956;20.130;2023-04-05T05:23:38;17.85;;;8.45;;
75012;SDS011;63567;49.956;20.130;2023-04-05T05:26:03;15.03;;;8.17;;
75012;SDS011;63567;49.956;20.130;2023-04-05T05:28:28;17.42;;;7.45;;
75012;SDS011;63567;49.956;20.130;2023-04-05T05:30:54;14.55;;;6.80;;
75012;SDS011;63567;49.956;20.130;2023-04-05T05:33:19;13.93;;;6.40;;
75012;SDS011;63567;49.956;20.130;2023-04-05T05:35:48;13.25;;;6.57;;
75012;SDS011;63567;49.956;20.130;2023-04-05T05:38:15;12.20;;;6.10;;
75012;SDS011;63567;49.956;20.130;2023-04-05T05:40:41;14.18;;;6.47;;
75012;SDS011;63567;49.956;20.130;2023-04-05T05:43:06;13.43;;;7.60;;
75012;SDS011;63567;49.956;20.130;2023-04-05T05:45:32;13.20;;;5.78;;
75012;SDS011;63567;49.956;20.130;2023-04-05T05:47:58;15.25;;;6.78;;
75012;SDS011;63567;49.956;20.130;2023-04-05T05:50:23;12.03;;;6.80;;
75012;SDS011;63567;49.956;20.130;2023-04-05T05:52:49;12.48;;;6.68;;
75012;SDS011;63567;49.956;20.130;2023-04-05T05:55:14;13.48;;;7.40;;
75012;SDS011;63567;49.956;20.130;2023-04-05T05:57:40;14.00;;;6.93;;
75012;SDS011;63567;49.956;20.130;2023-04-05T06:00:05;17.20;;;7.90;;
75012;SDS011;63567;49.956;20.130;2023-04-05T06:02:35;11.68;;;6.80;;
75012;SDS011;63567;49.956;20.130;2023-04-05T06:05:00;14.13;;;7.07;;
75012;SDS011;63567;49.956;20.130;2023-04-05T06:07:26;12.50;;;6.60;;
75012;SDS011;63567;49.956;20.130;2023-04-05T06:09:52;15.70;;;7.15;;
75012;SDS011;63567;49.956;20.130;2023-04-05T06:12:19;11.73;;;6.63;;
75012;SDS011;63567;49.956;20.130;2023-04-05T06:14:45;14.70;;;7.00;;
75012;SDS011;63567;49.956;20.130;2023-04-05T06:17:10;13.57;;;6.65;;
75012;SDS011;63567;49.956;20.130;2023-04-05T06:19:36;11.30;;;5.90;;
75012;SDS011;63567;49.956;20.130;2023-04-05T06:22:01;12.18;;;6.88;;
75012;SDS011;63567;49.956;20.130;2023-04-05T06:24:26;12.30;;;6.07;;
75012;SDS011;63567;49.956;20.130;2023-04-05T06:26:55;12.73;;;5.63;;
75012;SDS011;63567;49.956;20.130;2023-04-05T06:29:21;12.98;;;6.07;;
75012;SDS011;63567;49.956;20.130;2023-04-05T06:31:47;10.18;;;5.75;;
75012;SDS011;63567;49.956;20.130;2023-04-05T06:34:12;9.07;;;5.10;;
75012;SDS011;63567;49.956;20.130;2023-04-05T06:36:38;10.37;;;4.90;;
75012;SDS011;63567;49.956;20.130;2023-04-05T06:39:03;10.27;;;6.57;;
75012;SDS011;63567;49.956;20.130;2023-04-05T06:41:29;12.60;;;6.60;;
75012;SDS011;63567;49.956;20.130;2023-04-05T06:43:54;12.02;;;6.45;;
75012;SDS011;63567;49.956;20.130;2023-04-05T06:46:20;9.50;;;6.28;;
75012;SDS011;63567;49.956;20.130;2023-04-05T06:48:45;11.43;;;6.47;;
75012;SDS011;63567;49.956;20.130;2023-04-05T06:51:12;13.05;;;6.32;;
75012;SDS011;63567;49.956;20.130;2023-04-05T06:53:37;12.35;;;6.70;;
75012;SDS011;63567;49.956;20.130;2023-04-05T06:56:03;11.90;;;6.70;;
75012;SDS011;63567;49.956;20.130;2023-04-05T06:58:28;13.27;;;6.60;;
75012;SDS011;63567;49.956;20.130;2023-04-05T07:00:54;11.23;;;6.40;;
75012;SDS011;63567;49.956;20.130;2023-04-05T07:03:19;11.80;;;6.68;;
75012;SDS011;63567;49.956;20.130;2023-04-05T07:05:55;9.10;;;5.40;;
75012;SDS011;63567;49.956;20.130;2023-04-05T07:08:23;7.55;;;4.10;;
75012;SDS011;63567;49.956;20.130;2023-04-05T07:10:49;11.88;;;5.50;;
75012;SDS011;63567;49.956;20.130;2023-04-05T07:13:18;7.63;;;4.25;;
75012;SDS011;63567;49.956;20.130;2023-04-05T07:15:45;7.10;;;3.50;;
75012;SDS011;63567;49.956;20.130;2023-04-05T07:18:11;9.60;;;5.35;;
75012;SDS011;63567;49.956;20.130;2023-04-05T07:20:37;9.18;;;4.90;;
75012;SDS011;63567;49.956;20.130;2023-04-05T07:23:03;8.75;;;4.45;;
75012;SDS011;63567;49.956;20.130;2023-04-05T07:25:29;10.68;;;4.80;;
75012;SDS011;63567;49.956;20.130;2023-04-05T07:27:55;7.63;;;3.60;;
75012;SDS011;63567;49.956;20.130;2023-04-05T07:30:21;9.05;;;4.13;;
75012;SDS011;63567;49.956;20.130;2023-04-05T07:32:46;8.80;;;4.40;;
75012;SDS011;63567;49.956;20.130;2023-04-05T07:35:12;7.97;;;4.87;;
75012;SDS011;63567;49.956;20.130;2023-04-05T07:37:37;10.63;;;4.63;;
75012;SDS011;63567;49.956;20.130;2023-04-05T07:40:02;7.80;;;4.40;;
75012;SDS011;63567;49.956;20.130;2023-04-05T07:42:29;6.93;;;3.90;;
75012;SDS011;63567;49.956;20.130;2023-04-05T07:44:56;9.57;;;4.53;;
75012;SDS011;63567;49.956;20.130;2023-04-05T07:47:21;7.28;;;4.10;;
75012;SDS011;63567;49.956;20.130;2023-04-05T07:49:46;8.50;;;5.20;;
75012;SDS011;63567;49.956;20.130;2023-04-05T07:52:12;10.07;;;5.77;;
75012;SDS011;63567;49.956;20.130;2023-04-05T07:54:37;10.53;;;6.37;;
75012;SDS011;63567;49.956;20.130;2023-04-05T07:57:05;9.43;;;5.65;;
75012;SDS011;63567;49.956;20.130;2023-04-05T07:59:31;8.13;;;5.03;;
75012;SDS011;63567;49.956;20.130;2023-04-05T08:01:56;9.15;;;5.13;;
75012;SDS011;63567;49.956;20.130;2023-04-05T08:04:22;7.55;;;4.53;;
75012;SDS011;63567;49.956;20.130;2023-04-05T08:06:50;5.28;;;2.83;;
75012;SDS011;63567;49.956;20.130;2023-04-05T08:09:15;6.15;;;3.38;;
75012;SDS011;63567;49.956;20.130;2023-04-05T08:11:41;6.95;;;3.88;;
75012;SDS011;63567;49.956;20.130;2023-04-05T08:14:07;7.53;;;4.25;;
75012;SDS011;63567;49.956;20.130;2023-04-05T08:16:32;10.43;;;5.30;;
75012;SDS011;63567;49.956;20.130;2023-04-05T08:18:58;7.47;;;4.80;;
75012;SDS011;63567;49.956;20.130;2023-04-05T08:21:23;8.45;;;5.35;;
75012;SDS011;63567;49.956;20.130;2023-04-05T08:23:48;7.93;;;4.53;;
75012;SDS011;63567;49.956;20.130;2023-04-05T08:26:14;7.47;;;4.03;;
75012;SDS011;63567;49.956;20.130;2023-04-05T08:28:40;9.30;;;4.65;;
75012;SDS011;63567;49.956;20.130;2023-04-05T08:31:06;6.78;;;4.60;;
75012;SDS011;63567;49.956;20.130;2023-04-05T08:33:31;6.40;;;3.97;;
75012;SDS011;63567;49.956;20.130;2023-04-05T08:35:56;7.13;;;3.73;;
75012;SDS011;63567;49.956;20.130;2023-04-05T08:38:22;8.25;;;5.43;;
75012;SDS011;63567;49.956;20.130;2023-04-05T08:40:48;7.95;;;4.35;;
75012;SDS011;63567;49.956;20.130;2023-04-05T08:46:16;8.45;;;4.63;;
75012;SDS011;63567;49.956;20.130;2023-04-05T08:48:42;7.80;;;4.60;;
75012;SDS011;63567;49.956;20.130;2023-04-05T08:51:08;7.18;;;4.72;;
75012;SDS011;63567;49.956;20.130;2023-04-05T08:53:34;8.60;;;4.82;;
75012;SDS011;63567;49.956;20.130;2023-04-05T08:56:00;8.95;;;5.25;;
75012;SDS011;63567;49.956;20.130;2023-04-05T08:58:27;7.75;;;4.85;;
75012;SDS011;63567;49.956;20.130;2023-04-05T09:00:52;7.55;;;4.32;;
75012;SDS011;63567;49.956;20.130;2023-04-05T09:03:20;8.25;;;4.97;;
75012;SDS011;63567;49.956;20.130;2023-04-05T09:05:49;8.02;;;4.57;;
75012;SDS011;63567;49.956;20.130;2023-04-05T09:08:15;8.20;;;4.22;;
75012;SDS011;63567;49.956;20.130;2023-04-05T09:10:41;8.55;;;4.82;;
75012;SDS011;63567;49.956;20.130;2023-04-05T09:13:07;8.18;;;4.90;;
75012;SDS011;63567;49.956;20.130;2023-04-05T09:15:34;8.65;;;5.20;;
75012;SDS011;63567;49.956;20.130;2023-04-05T09:18:00;8.65;;;4.68;;
75012;SDS011;63567;49.956;20.130;2023-04-05T09:20:25;7.83;;;5.23;;
75012;SDS011;63567;49.956;20.130;2023-04-05T09:22:51;9.00;;;5.60;;
75012;SDS011;63567;49.956;20.130;2023-04-05T09:25:35;10.47;;;5.97;;
75012;SDS011;63567;49.956;20.130;2023-04-05T09:28:05;9.95;;;5.38;;
75012;SDS011;63567;49.956;20.130;2023-04-05T09:30:31;10.20;;;5.80;;
75012;SDS011;63567;49.956;20.130;2023-04-05T09:32:58;12.07;;;6.40;;
75012;SDS011;63567;49.956;20.130;2023-04-05T09:35:27;9.05;;;6.38;;
75012;SDS011;63567;49.956;20.130;2023-04-05T09:37:55;9.45;;;6.15;;
75012;SDS011;63567;49.956;20.130;2023-04-05T09:40:21;8.68;;;5.40;;
75012;SDS011;63567;49.956;20.130;2023-04-05T09:42:47;8.05;;;5.05;;
75012;SDS011;63567;49.956;20.130;2023-04-05T09:45:13;8.77;;;5.35;;
75012;SDS011;63567;49.956;20.130;2023-04-05T09:47:40;9.25;;;5.68;;
75012;SDS011;63567;49.956;20.130;2023-04-05T09:52:40;9.52;;;5.75;;
75012;SDS011;63567;49.956;20.130;2023-04-05T09:55:06;7.90;;;5.60;;
75012;SDS011;63567;49.956;20.130;2023-04-05T09:57:34;9.30;;;5.50;;
75012;SDS011;63567;49.956;20.130;2023-04-05T10:00:01;10.18;;;5.32;;
75012;SDS011;63567;49.956;20.130;2023-04-05T10:02:36;9.68;;;5.15;;
75012;SDS011;63567;49.956;20.130;2023-04-05T10:05:04;8.93;;;5.43;;
75012;SDS011;63567;49.956;20.130;2023-04-05T10:07:31;9.10;;;5.22;;
75012;SDS011;63567;49.956;20.130;2023-04-05T10:09:56;7.50;;;4.97;;
75012;SDS011;63567;49.956;20.130;2023-04-05T10:12:25;8.17;;;4.60;;
75012;SDS011;63567;49.956;20.130;2023-04-05T10:14:52;8.82;;;3.83;;
75012;SDS011;63567;49.956;20.130;2023-04-05T10:20:13;6.15;;;3.70;;
75012;SDS011;63567;49.956;20.130;2023-04-05T10:22:44;7.93;;;4.10;;
75012;SDS011;63567;49.956;20.130;2023-04-05T10:27:54;6.82;;;4.32;;
75012;SDS011;63567;49.956;20.130;2023-04-05T10:30:23;7.65;;;5.03;;
75012;SDS011;63567;49.956;20.130;2023-04-05T10:33:00;6.65;;;4.55;;
75012;SDS011;63567;49.956;20.130;2023-04-05T10:38:35;6.88;;;4.03;;
75012;SDS011;63567;49.956;20.130;2023-04-05T10:43:39;7.73;;;5.27;;
75012;SDS011;63567;49.956;20.130;2023-04-05T10:46:05;7.07;;;4.95;;
75012;SDS011;63567;49.956;20.130;2023-04-05T10:51:10;6.30;;;4.00;;
75012;SDS011;63567;49.956;20.130;2023-04-05T10:53:37;7.35;;;4.30;;
75012;SDS011;63567;49.956;20.130;2023-04-05T10:56:04;6.75;;;4.82;;
75012;SDS011;63567;49.956;20.130;2023-04-05T10:58:30;7.45;;;4.20;;
75012;SDS011;63567;49.956;20.130;2023-04-05T11:00:57;7.07;;;4.88;;
75012;SDS011;63567;49.956;20.130;2023-04-05T11:11:48;6.30;;;3.65;;
75012;SDS011;63567;49.956;20.130;2023-04-05T11:14:21;6.50;;;4.00;;
75012;SDS011;63567;49.956;20.130;2023-04-05T11:16:48;6.93;;;3.95;;
75012;SDS011;63567;49.956;20.130;2023-04-05T11:21:42;7.30;;;4.43;;
75012;SDS011;63567;49.956;20.130;2023-04-05T11:24:09;8.27;;;3.83;;
75012;SDS011;63567;49.956;20.130;2023-04-05T11:29:07;6.20;;;4.27;;
75012;SDS011;63567;49.956;20.130;2023-04-05T11:31:32;7.07;;;4.40;;
75012;SDS011;63567;49.956;20.130;2023-04-05T11:33:58;7.22;;;4.60;;
75012;SDS011;63567;49.956;20.130;2023-04-05T11:36:28;8.10;;;4.85;;
75012;SDS011;63567;49.956;20.130;2023-04-05T11:39:39;6.75;;;4.40;;
75012;SDS011;63567;49.956;20.130;2023-04-05T11:41:42;6.65;;;4.05;;
75012;SDS011;63567;49.956;20.130;2023-04-05T11:44:13;7.13;;;4.75;;
75012;SDS011;63567;49.956;20.130;2023-04-05T11:46:40;8.60;;;4.65;;
75012;SDS011;63567;49.956;20.130;2023-04-05T11:49:10;6.40;;;4.18;;
75012;SDS011;63567;49.956;20.130;2023-04-05T11:51:36;6.50;;;5.03;;
75012;SDS011;63567;49.956;20.130;2023-04-05T11:54:06;6.18;;;4.35;;
75012;SDS011;63567;49.956;20.130;2023-04-05T11:56:35;8.60;;;4.88;;
75012;SDS011;63567;49.956;20.130;2023-04-05T11:59:01;8.27;;;4.88;;
75012;SDS011;63567;49.956;20.130;2023-04-05T12:01:27;7.50;;;4.88;;
75012;SDS011;63567;49.956;20.130;2023-04-05T12:03:53;6.40;;;4.90;;
75012;SDS011;63567;49.956;20.130;2023-04-05T12:06:21;6.32;;;4.00;;
75012;SDS011;63567;49.956;20.130;2023-04-05T12:08:47;7.05;;;5.13;;
75012;SDS011;63567;49.956;20.130;2023-04-05T12:11:29;6.70;;;4.90;;
75012;SDS011;63567;49.956;20.130;2023-04-05T12:13:58;6.63;;;4.10;;
75012;SDS011;63567;49.956;20.130;2023-04-05T12:16:26;8.15;;;5.13;;
75012;SDS011;63567;49.956;20.130;2023-04-05T12:18:52;8.23;;;5.00;;
75012;SDS011;63567;49.956;20.130;2023-04-05T12:21:18;6.88;;;4.70;;
75012;SDS011;63567;49.956;20.130;2023-04-05T12:23:44;7.70;;;5.15;;
75012;SDS011;63567;49.956;20.130;2023-04-05T12:26:10;6.95;;;4.93;;
75012;SDS011;63567;49.956;20.130;2023-04-05T12:28:49;10.30;;;6.30;;
75012;SDS011;63567;49.956;20.130;2023-04-05T12:31:17;8.77;;;5.93;;
75012;SDS011;63567;49.956;20.130;2023-04-05T12:33:59;10.43;;;5.88;;
75012;SDS011;63567;49.956;20.130;2023-04-05T12:36:25;7.82;;;4.95;;
75012;SDS011;63567;49.956;20.130;2023-04-05T12:38:53;9.05;;;5.53;;
75012;SDS011;63567;49.956;20.130;2023-04-05T12:41:25;7.63;;;5.20;;
75012;SDS011;63567;49.956;20.130;2023-04-05T12:43:51;7.15;;;5.28;;
75012;SDS011;63567;49.956;20.130;2023-04-05T12:46:36;7.53;;;4.35;;
75012;SDS011;63567;49.956;20.130;2023-04-05T12:49:12;5.20;;;4.22;;
75012;SDS011;63567;49.956;20.130;2023-04-05T12:51:42;7.53;;;5.15;;
75012;SDS011;63567;49.956;20.130;2023-04-05T12:54:10;7.63;;;4.38;;
75012;SDS011;63567;49.956;20.130;2023-04-05T12:56:39;7.80;;;5.55;;
75012;SDS011;63567;49.956;20.130;2023-04-05T12:59:05;7.30;;;4.75;;
75012;SDS011;63567;49.956;20.130;2023-04-05T13:01:32;7.30;;;5.20;;
75012;SDS011;63567;49.956;20.130;2023-04-05T13:04:00;7.15;;;4.95;;
75012;SDS011;63567;49.956;20.130;2023-04-05T13:06:26;7.78;;;5.50;;
75012;SDS011;63567;49.956;20.130;2023-04-05T13:08:52;7.65;;;5.85;;
75012;SDS011;63567;49.956;20.130;2023-04-05T13:11:17;7.40;;;5.60;;
75012;SDS011;63567;49.956;20.130;2023-04-05T13:13:43;8.73;;;5.90;;
75012;SDS011;63567;49.956;20.130;2023-04-05T13:16:08;6.57;;;4.97;;
75012;SDS011;63567;49.956;20.130;2023-04-05T13:18:34;8.70;;;5.38;;
75012;SDS011;63567;49.956;20.130;2023-04-05T13:20:59;8.48;;;6.00;;
75012;SDS011;63567;49.956;20.130;2023-04-05T13:23:28;9.32;;;6.50;;
75012;SDS011;63567;49.956;20.130;2023-04-05T13:25:54;8.07;;;5.97;;
75012;SDS011;63567;49.956;20.130;2023-04-05T13:28:19;9.25;;;6.40;;
75012;SDS011;63567;49.956;20.130;2023-04-05T13:30:45;7.35;;;5.53;;
75012;SDS011;63567;49.956;20.130;2023-04-05T13:33:11;7.80;;;5.45;;
75012;SDS011;63567;49.956;20.130;2023-04-05T13:35:36;8.40;;;6.33;;
75012;SDS011;63567;49.956;20.130;2023-04-05T13:38:02;9.15;;;6.70;;
75012;SDS011;63567;49.956;20.130;2023-04-05T13:40:27;7.50;;;6.05;;
75012;SDS011;63567;49.956;20.130;2023-04-05T13:42:52;7.53;;;6.70;;
75012;SDS011;63567;49.956;20.130;2023-04-05T13:45:18;7.13;;;5.47;;
75012;SDS011;63567;49.956;20.130;2023-04-05T13:47:43;6.18;;;5.57;;
75012;SDS011;63567;49.956;20.130;2023-04-05T13:50:09;6.97;;;6.28;;
75012;SDS011;63567;49.956;20.130;2023-04-05T13:52:34;5.68;;;4.95;;
75012;SDS011;63567;49.956;20.130;2023-04-05T13:55:01;9.88;;;6.03;;
75012;SDS011;63567;49.956;20.130;2023-04-05T13:57:26;9.48;;;6.28;;
75012;SDS011;63567;49.956;20.130;2023-04-05T13:59:52;10.00;;;6.22;;
75012;SDS011;63567;49.956;20.130;2023-04-05T14:02:17;7.93;;;6.17;;
75012;SDS011;63567;49.956;20.130;2023-04-05T14:04:44;9.50;;;6.35;;
75012;SDS011;63567;49.956;20.130;2023-04-05T14:07:10;8.80;;;5.85;;
75012;SDS011;63567;49.956;20.130;2023-04-05T14:09:35;9.77;;;6.03;;
75012;SDS011;63567;49.956;20.130;2023-04-05T14:12:01;8.00;;;6.22;;
75012;SDS011;63567;49.956;20.130;2023-04-05T14:14:27;10.80;;;6.13;;
75012;SDS011;63567;49.956;20.130;2023-04-05T14:16:53;8.80;;;6.90;;
75012;SDS011;63567;49.956;20.130;2023-04-05T14:19:18;10.10;;;7.63;;
75012;SDS011;63567;49.956;20.130;2023-04-05T14:21:43;11.73;;;6.97;;
75012;SDS011;63567;49.956;20.130;2023-04-05T14:24:09;10.43;;;7.70;;
75012;SDS011;63567;49.956;20.130;2023-04-05T14:26:35;9.68;;;6.88;;
75012;SDS011;63567;49.956;20.130;2023-04-05T14:29:00;10.70;;;6.70;;
75012;SDS011;63567;49.956;20.130;2023-04-05T14:31:26;9.40;;;6.88;;
75012;SDS011;63567;49.956;20.130;2023-04-05T14:33:51;11.20;;;6.03;;
75012;SDS011;63567;49.956;20.130;2023-04-05T14:36:16;12.65;;;7.28;;
75012;SDS011;63567;49.956;20.130;2023-04-05T14:38:42;10.50;;;6.63;;
75012;SDS011;63567;49.956;20.130;2023-04-05T14:41:07;10.27;;;6.95;;
75012;SDS011;63567;49.956;20.130;2023-04-05T14:43:34;11.35;;;6.78;;
75012;SDS011;63567;49.956;20.130;2023-04-05T14:46:00;9.30;;;6.72;;
75012;SDS011;63567;49.956;20.130;2023-04-05T14:48:25;8.77;;;5.97;;
75012;SDS011;63567;49.956;20.130;2023-04-05T14:50:52;10.77;;;6.65;;
75012;SDS011;63567;49.956;20.130;2023-04-05T14:53:17;10.05;;;6.82;;
75012;SDS011;63567;49.956;20.130;2023-04-05T14:55:42;9.10;;;6.00;;
75012;SDS011;63567;49.956;20.130;2023-04-05T14:58:08;8.98;;;6.35;;
75012;SDS011;63567;49.956;20.130;2023-04-05T15:00:33;9.50;;;6.47;;
75012;SDS011;63567;49.956;20.130;2023-04-05T15:02:59;10.95;;;6.30;;
75012;SDS011;63567;49.956;20.130;2023-04-05T15:05:24;9.77;;;6.10;;
75012;SDS011;63567;49.956;20.130;2023-04-05T15:07:50;9.20;;;6.40;;
75012;SDS011;63567;49.956;20.130;2023-04-05T15:10:15;10.40;;;6.93;;
75012;SDS011;63567;49.956;20.130;2023-04-05T15:12:42;10.38;;;6.07;;